sensor_id;sensor_type;location;lat;lon;timestamp;pressure;altitude;pressure_sealevel;temperature;humidity
48680;BME280;34475;51.658;5.634;2022-08-19T00:00:00;101050;;;21.7;100.0
48680;BME280;34475;51.658;5.634;2022-08-19T00:01:00;101050;;;21.7;100.0
48680;BME280;34475;51.658;5.634;2022-08-19T00:02:00;101050;;;21.6;100.0
48680;BME280;34475;51.658;5.634;2022-08-19T00:03:00;101050;;;21.6;100.0
48680;BME280;34475;51.658;5.634;2022-08-19T00:04:00;101050;;;21.6;100.0
48680;BME280;34475;51.658;5.634;2022-08-19T00:05:00;101050;;;21.6;100.0
48680;BME280;34475;51.658;5.634;2022-08-19T00:06:00;101050;;;21.7;100.0
48680;BME280;34475;51.658;5.634;2022-08-19T00:07:00;101050;;;21.7;100.0
48680;BME280;34475;51.658;5.634;2022-08-19T00:08:00;101050;;;21.6;100.0
48680;BME280;34475;51.658;5.634;2022-08-19T00:09:00;101050;;;21.6;100.0
48680;BME280;34475;51.658;5.634;2022-08-19T00:10:00;101050;;;21.6;100.0
48680;BME280;34475;51.658;5.634;2022-08-19T00:11:00;101050;;;21.6;100.0
48680;BME280;34475;51.658;5.634;2022-08-19T00:12:00;101050;;;21.6;100.0
48680;BME280;34475;51.658;5.634;2022-08-19T00:13:00;101050;;;21.6;100.0
48680;BME280;34475;51.658;5.634;2022-08-19T00:14:00;101050;;;21.5;100.0
48680;BME280;34475;51.658;5.634;2022-08-19T00:15:00;101050;;;21.5;100.0
48680;BME280;34475;51.658;5.634;2022-08-19T00:16:00;101050;;;21.5;100.0
48680;BME280;34475;51.658;5.634;2022-08-19T00:17:00;101050;;;21.5;100.0
48680;BME280;34475;51.658;5.634;2022-08-19T00:18:00;101050;;;21.5;100.0
48680;BME280;34475;51.658;5.634;2022-08-19T00:19:00;101050;;;21.5;100.0
48680;BME280;34475;51.658;5.634;2022-08-19T00:20:00;101050;;;21.5;100.0
48680;BME280;34475;51.658;5.634;2022-08-19T00:21:00;101050;;;21.5;100.0
48680;BME280;34475;51.658;5.634;2022-08-19T00:22:00;101050;;;21.5;100.0
48680;BME280;34475;51.658;5.634;2022-08-19T00:23:00;101050;;;21.5;100.0
48680;BME280;34475;51.658;5.634;2022-08-19T00:24:00;101050;;;21.4;100.0
48680;BME280;34475;51.658;5.634;2022-08-19T00:25:00;101050;;;21.4;100.0
48680;BME280;34475;51.658;5.634;2022-08-19T00:26:00;101050;;;21.5;100.0
48680;BME280;34475;51.658;5.634;2022-08-19T00:27:00;101050;;;21.5;100.0
48680;BME280;34475;51.658;5.634;2022-08-19T00:28:00;101050;;;21.4;100.0
48680;BME280;34475;51.658;5.634;2022-08-19T00:29:00;101050;;;21.4;100.0
48680;BME280;34475;51.658;5.634;2022-08-19T00:30:00;101050;;;21.4;100.0
48680;BME280;34475;51.658;5.634;2022-08-19T00:31:00;101050;;;21.4;100.0
48680;BME280;34475;51.658;5.634;2022-08-19T00:32:00;101050;;;21.4;100.0
48680;BME280;34475;51.658;5.634;2022-08-19T00:33:00;101050;;;21.4;100.0
48680;BME280;34475;51.658;5.634;2022-08-19T00:34:00;101050;;;21.3;100.0
48680;BME280;34475;51.658;5.634;2022-08-19T00:35:00;101050;;;21.3;100.0
48680;BME280;34475;51.658;5.634;2022-08-19T00:36:00;101050;;;21.3;100.0
48680;BME280;34475;51.658;5.634;2022-08-19T00:37:00;101050;;;21.3;100.0
48680;BME280;34475;51.658;5.634;2022-08-19T00:38:00;101060;;;21.2;100.0
48680;BME280;34475;51.658;5.634;2022-08-19T00:39:00;101060;;;21.2;100.0
48680;BME280;34475;51.658;5.634;2022-08-19T00:40:00;101060;;;21.2;100.0
48680;BME280;34475;51.658;5.634;2022-08-19T00:41:00;101060;;;21.2;100.0
48680;BME280;34475;51.658;5.634;2022-08-19T00:42:00;101060;;;21.2;100.0
48680;BME280;34475;51.658;5.634;2022-08-19T00:43:00;101060;;;21.2;100.0
48680;BME280;34475;51.658;5.634;2022-08-19T00:44:01;101060;;;21.1;100.0
48680;BME280;34475;51.658;5.634;2022-08-19T00:45:00;101060;;;21.1;100.0
48680;BME280;34475;51.658;5.634;2022-08-19T00:46:00;101060;;;21.2;100.0
48680;BME280;34475;51.658;5.634;2022-08-19T00:47:00;101060;;;21.2;100.0
48680;BME280;34475;51.658;5.634;2022-08-19T00:48:00;101060;;;21.2;100.0
48680;BME280;34475;51.658;5.634;2022-08-19T00:49:00;101060;;;21.2;100.0
48680;BME280;34475;51.658;5.634;2022-08-19T00:50:00;101070;;;21.2;100.0
48680;BME280;34475;51.658;5.634;2022-08-19T00:51:00;101070;;;21.2;100.0
48680;BME280;34475;51.658;5.634;2022-08-19T00:52:01;101060;;;21.2;100.0
48680;BME280;34475;51.658;5.634;2022-08-19T00:53:00;101060;;;21.2;100.0
48680;BME280;34475;51.658;5.634;2022-08-19T00:54:00;101060;;;21.2;100.0
48680;BME280;34475;51.658;5.634;2022-08-19T00:55:00;101060;;;21.2;100.0
48680;BME280;34475;51.658;5.634;2022-08-19T00:56:00;101060;;;21.1;100.0
48680;BME280;34475;51.658;5.634;2022-08-19T00:57:00;101060;;;21.1;100.0
48680;BME280;34475;51.658;5.634;2022-08-19T00:58:02;101060;;;21.1;100.0
48680;BME280;34475;51.658;5.634;2022-08-19T00:59:00;101060;;;21.1;100.0
48680;BME280;34475;51.658;5.634;2022-08-19T01:00:00;101060;;;21.0;100.0
48680;BME280;34475;51.658;5.634;2022-08-19T01:01:00;101060;;;21.0;100.0
48680;BME280;34475;51.658;5.634;2022-08-19T01:02:00;101060;;;21.1;100.0
48680;BME280;34475;51.658;5.634;2022-08-19T01:03:00;101060;;;21.1;100.0
48680;BME280;34475;51.658;5.634;2022-08-19T01:04:00;101060;;;21.0;100.0
48680;BME280;34475;51.658;5.634;2022-08-19T01:05:01;101060;;;21.0;100.0
48680;BME280;34475;51.658;5.634;2022-08-19T01:06:00;101060;;;21.0;100.0
48680;BME280;34475;51.658;5.634;2022-08-19T01:07:00;101060;;;21.0;100.0
48680;BME280;34475;51.658;5.634;2022-08-19T01:08:00;101060;;;21.0;100.0
48680;BME280;34475;51.658;5.634;2022-08-19T01:09:00;101060;;;21.0;100.0
48680;BME280;34475;51.658;5.634;2022-08-19T01:10:00;101060;;;21.0;100.0
48680;BME280;34475;51.658;5.634;2022-08-19T01:11:00;101060;;;21.0;100.0
48680;BME280;34475;51.658;5.634;2022-08-19T01:12:00;101060;;;21.0;100.0
48680;BME280;34475;51.658;5.634;2022-08-19T01:13:00;101060;;;21.0;100.0
48680;BME280;34475;51.658;5.634;2022-08-19T01:14:00;101060;;;21.0;100.0
48680;BME280;34475;51.658;5.634;2022-08-19T01:15:00;101060;;;21.0;100.0
48680;BME280;34475;51.658;5.634;2022-08-19T01:16:04;101060;;;21.0;100.0
48680;BME280;34475;51.658;5.634;2022-08-19T01:17:00;101060;;;21.0;100.0
48680;BME280;34475;51.658;5.634;2022-08-19T01:18:01;101060;;;20.9;100.0
48680;BME280;34475;51.658;5.634;2022-08-19T01:19:00;101060;;;20.9;100.0
48680;BME280;34475;51.658;5.634;2022-08-19T01:20:00;101060;;;20.9;100.0
48680;BME280;34475;51.658;5.634;2022-08-19T01:21:01;101060;;;20.9;100.0
48680;BME280;34475;51.658;5.634;2022-08-19T01:22:02;101060;;;20.9;100.0
48680;BME280;34475;51.658;5.634;2022-08-19T01:23:00;101060;;;20.9;100.0
48680;BME280;34475;51.658;5.634;2022-08-19T01:24:00;101060;;;20.9;100.0
48680;BME280;34475;51.658;5.634;2022-08-19T01:25:00;101060;;;20.9;100.0
48680;BME280;34475;51.658;5.634;2022-08-19T01:26:00;101060;;;20.9;100.0
48680;BME280;34475;51.658;5.634;2022-08-19T01:27:00;101060;;;20.9;100.0
48680;BME280;34475;51.658;5.634;2022-08-19T01:28:00;101060;;;20.9;100.0
48680;BME280;34475;51.658;5.634;2022-08-19T01:29:00;101060;;;20.9;100.0
48680;BME280;34475;51.658;5.634;2022-08-19T01:30:00;101060;;;20.9;100.0
48680;BME280;34475;51.658;5.634;2022-08-19T01:31:00;101060;;;20.9;100.0
48680;BME280;34475;51.658;5.634;2022-08-19T01:32:00;101060;;;20.8;100.0
48680;BME280;34475;51.658;5.634;2022-08-19T01:33:00;101060;;;20.8;100.0
48680;BME280;34475;51.658;5.634;2022-08-19T01:34:00;101060;;;20.8;100.0
48680;BME280;34475;51.658;5.634;2022-08-19T01:35:00;101060;;;20.8;100.0
48680;BME280;34475;51.658;5.634;2022-08-19T01:36:09;101060;;;20.8;100.0
48680;BME280;34475;51.658;5.634;2022-08-19T01:37:00;101060;;;20.8;100.0
48680;BME280;34475;51.658;5.634;2022-08-19T01:38:02;101060;;;20.7;100.0
48680;BME280;34475;51.658;5.634;2022-08-19T01:39:00;101060;;;20.7;100.0
48680;BME280;34475;51.658;5.634;2022-08-19T01:40:00;101070;;;20.6;100.0
48680;BME280;34475;51.658;5.634;2022-08-19T01:41:00;101070;;;20.6;100.0
48680;BME280;34475;51.658;5.634;2022-08-19T01:42:00;101060;;;20.6;100.0
48680;BME280;34475;51.658;5.634;2022-08-19T01:43:00;101060;;;20.6;100.0
48680;BME280;34475;51.658;5.634;2022-08-19T01:44:00;101060;;;20.7;100.0
48680;BME280;34475;51.658;5.634;2022-08-19T01:45:00;101060;;;20.7;100.0
48680;BME280;34475;51.658;5.634;2022-08-19T01:46:00;101060;;;20.7;100.0
48680;BME280;34475;51.658;5.634;2022-08-19T01:47:00;101060;;;20.7;100.0
48680;BME280;34475;51.658;5.634;2022-08-19T01:48:00;101060;;;20.6;100.0
48680;BME280;34475;51.658;5.634;2022-08-19T01:49:00;101060;;;20.6;100.0
48680;BME280;34475;51.658;5.634;2022-08-19T01:50:00;101060;;;20.6;100.0
48680;BME280;34475;51.658;5.634;2022-08-19T01:51:00;101060;;;20.6;100.0
48680;BME280;34475;51.658;5.634;2022-08-19T01:52:00;101060;;;20.6;100.0
48680;BME280;34475;51.658;5.634;2022-08-19T01:53:00;101060;;;20.6;100.0
48680;BME280;34475;51.658;5.634;2022-08-19T01:54:00;101060;;;20.7;100.0
48680;BME280;34475;51.658;5.634;2022-08-19T01:55:00;101060;;;20.7;100.0
48680;BME280;34475;51.658;5.634;2022-08-19T01:56:00;101060;;;20.6;100.0
48680;BME280;34475;51.658;5.634;2022-08-19T01:57:01;101060;;;20.6;100.0
48680;BME280;34475;51.658;5.634;2022-08-19T01:58:00;101070;;;20.6;100.0
48680;BME280;34475;51.658;5.634;2022-08-19T01:59:01;101070;;;20.6;100.0
48680;BME280;34475;51.658;5.634;2022-08-19T02:00:00;101070;;;20.6;100.0
48680;BME280;34475;51.658;5.634;2022-08-19T02:01:00;101070;;;20.6;100.0
48680;BME280;34475;51.658;5.634;2022-08-19T02:02:00;101070;;;20.6;100.0
48680;BME280;34475;51.658;5.634;2022-08-19T02:03:00;101070;;;20.6;100.0
48680;BME280;34475;51.658;5.634;2022-08-19T02:04:00;101070;;;20.5;100.0
48680;BME280;34475;51.658;5.634;2022-08-19T02:05:00;101070;;;20.5;100.0
48680;BME280;34475;51.658;5.634;2022-08-19T02:06:01;101070;;;20.6;100.0
48680;BME280;34475;51.658;5.634;2022-08-19T02:07:00;101070;;;20.6;100.0
48680;BME280;34475;51.658;5.634;2022-08-19T02:08:00;101080;;;20.5;100.0
48680;BME280;34475;51.658;5.634;2022-08-19T02:09:00;101080;;;20.5;100.0
48680;BME280;34475;51.658;5.634;2022-08-19T02:10:02;101080;;;20.5;100.0
48680;BME280;34475;51.658;5.634;2022-08-19T02:11:00;101080;;;20.5;100.0
48680;BME280;34475;51.658;5.634;2022-08-19T02:12:00;101080;;;20.5;100.0
48680;BME280;34475;51.658;5.634;2022-08-19T02:13:00;101080;;;20.5;100.0
48680;BME280;34475;51.658;5.634;2022-08-19T02:14:00;101070;;;20.5;100.0
48680;BME280;34475;51.658;5.634;2022-08-19T02:15:00;101070;;;20.5;100.0
48680;BME280;34475;51.658;5.634;2022-08-19T02:16:00;101080;;;20.4;100.0
48680;BME280;34475;51.658;5.634;2022-08-19T02:17:00;101080;;;20.4;100.0
48680;BME280;34475;51.658;5.634;2022-08-19T02:18:00;101080;;;20.4;100.0
48680;BME280;34475;51.658;5.634;2022-08-19T02:19:00;101080;;;20.4;100.0
48680;BME280;34475;51.658;5.634;2022-08-19T02:20:00;101100;;;20.4;100.0
48680;BME280;34475;51.658;5.634;2022-08-19T02:21:00;101100;;;20.4;100.0
48680;BME280;34475;51.658;5.634;2022-08-19T02:22:00;101090;;;20.4;100.0
48680;BME280;34475;51.658;5.634;2022-08-19T02:23:00;101090;;;20.4;100.0
48680;BME280;34475;51.658;5.634;2022-08-19T02:24:00;101090;;;20.4;100.0
48680;BME280;34475;51.658;5.634;2022-08-19T02:25:00;101090;;;20.4;100.0
48680;BME280;34475;51.658;5.634;2022-08-19T02:26:00;101090;;;20.4;100.0
48680;BME280;34475;51.658;5.634;2022-08-19T02:27:00;101090;;;20.4;100.0
48680;BME280;34475;51.658;5.634;2022-08-19T02:28:00;101080;;;20.4;100.0
48680;BME280;34475;51.658;5.634;2022-08-19T02:29:00;101080;;;20.4;100.0
48680;BME280;34475;51.658;5.634;2022-08-19T02:30:00;101080;;;20.3;100.0
48680;BME280;34475;51.658;5.634;2022-08-19T02:31:00;101080;;;20.3;100.0
48680;BME280;34475;51.658;5.634;2022-08-19T02:32:00;101080;;;20.3;100.0
48680;BME280;34475;51.658;5.634;2022-08-19T02:33:00;101080;;;20.3;100.0
48680;BME280;34475;51.658;5.634;2022-08-19T02:34:00;101080;;;20.3;100.0
48680;BME280;34475;51.658;5.634;2022-08-19T02:35:00;101080;;;20.3;100.0
48680;BME280;34475;51.658;5.634;2022-08-19T02:36:02;101080;;;20.2;100.0
48680;BME280;34475;51.658;5.634;2022-08-19T02:37:00;101080;;;20.2;100.0
48680;BME280;34475;51.658;5.634;2022-08-19T02:38:00;101080;;;20.2;100.0
48680;BME280;34475;51.658;5.634;2022-08-19T02:39:00;101080;;;20.2;100.0
48680;BME280;34475;51.658;5.634;2022-08-19T02:40:00;101080;;;20.1;100.0
48680;BME280;34475;51.658;5.634;2022-08-19T02:41:01;101080;;;20.1;100.0
48680;BME280;34475;51.658;5.634;2022-08-19T02:42:00;101090;;;20.1;100.0
48680;BME280;34475;51.658;5.634;2022-08-19T02:43:02;101090;;;20.1;100.0
48680;BME280;34475;51.658;5.634;2022-08-19T02:44:00;101090;;;20.1;100.0
48680;BME280;34475;51.658;5.634;2022-08-19T02:45:00;101090;;;20.1;100.0
48680;BME280;34475;51.658;5.634;2022-08-19T02:46:00;101090;;;20.1;100.0
48680;BME280;34475;51.658;5.634;2022-08-19T02:47:00;101090;;;20.1;100.0
48680;BME280;34475;51.658;5.634;2022-08-19T02:48:00;101090;;;20.1;100.0
48680;BME280;34475;51.658;5.634;2022-08-19T02:49:01;101090;;;20.1;100.0
48680;BME280;34475;51.658;5.634;2022-08-19T02:50:00;101100;;;20.1;100.0
48680;BME280;34475;51.658;5.634;2022-08-19T02:51:00;101100;;;20.1;100.0
48680;BME280;34475;51.658;5.634;2022-08-19T02:52:00;101090;;;20.1;100.0
48680;BME280;34475;51.658;5.634;2022-08-19T02:53:00;101090;;;20.1;100.0
48680;BME280;34475;51.658;5.634;2022-08-19T02:54:00;101100;;;20.1;100.0
48680;BME280;34475;51.658;5.634;2022-08-19T02:55:00;101100;;;20.1;100.0
48680;BME280;34475;51.658;5.634;2022-08-19T02:56:00;101100;;;20.0;100.0
48680;BME280;34475;51.658;5.634;2022-08-19T02:57:00;101100;;;20.0;100.0
48680;BME280;34475;51.658;5.634;2022-08-19T02:58:00;101100;;;20.0;100.0
48680;BME280;34475;51.658;5.634;2022-08-19T02:59:00;101100;;;20.0;100.0
48680;BME280;34475;51.658;5.634;2022-08-19T03:00:00;101100;;;20.0;100.0
48680;BME280;34475;51.658;5.634;2022-08-19T03:01:00;101100;;;20.0;100.0
48680;BME280;34475;51.658;5.634;2022-08-19T03:02:00;101090;;;19.9;100.0
48680;BME280;34475;51.658;5.634;2022-08-19T03:03:00;101090;;;19.9;100.0
48680;BME280;34475;51.658;5.634;2022-08-19T03:04:00;101090;;;19.9;100.0
48680;BME280;34475;51.658;5.634;2022-08-19T03:05:00;101090;;;19.9;100.0
48680;BME280;34475;51.658;5.634;2022-08-19T03:06:04;101090;;;20.0;100.0
48680;BME280;34475;51.658;5.634;2022-08-19T03:07:00;101090;;;20.0;100.0
48680;BME280;34475;51.658;5.634;2022-08-19T03:08:00;101090;;;19.9;100.0
48680;BME280;34475;51.658;5.634;2022-08-19T03:09:00;101090;;;19.9;100.0
48680;BME280;34475;51.658;5.634;2022-08-19T03:10:00;101090;;;19.9;100.0
48680;BME280;34475;51.658;5.634;2022-08-19T03:11:00;101090;;;19.9;100.0
48680;BME280;34475;51.658;5.634;2022-08-19T03:12:00;101090;;;19.9;100.0
48680;BME280;34475;51.658;5.634;2022-08-19T03:13:00;101090;;;19.9;100.0
48680;BME280;34475;51.658;5.634;2022-08-19T03:14:00;101100;;;19.9;100.0
48680;BME280;34475;51.658;5.634;2022-08-19T03:15:00;101100;;;19.9;100.0
48680;BME280;34475;51.658;5.634;2022-08-19T03:16:00;101100;;;19.9;100.0
48680;BME280;34475;51.658;5.634;2022-08-19T03:17:00;101100;;;19.9;100.0
48680;BME280;34475;51.658;5.634;2022-08-19T03:18:00;101100;;;19.9;100.0
48680;BME280;34475;51.658;5.634;2022-08-19T03:19:00;101100;;;19.9;100.0
48680;BME280;34475;51.658;5.634;2022-08-19T03:20:00;101100;;;19.8;100.0
48680;BME280;34475;51.658;5.634;2022-08-19T03:21:00;101100;;;19.8;100.0
48680;BME280;34475;51.658;5.634;2022-08-19T03:22:00;101100;;;19.7;100.0
48680;BME280;34475;51.658;5.634;2022-08-19T03:23:00;101100;;;19.7;100.0
48680;BME280;34475;51.658;5.634;2022-08-19T03:24:01;101100;;;19.8;100.0
48680;BME280;34475;51.658;5.634;2022-08-19T03:25:00;101100;;;19.8;100.0
48680;BME280;34475;51.658;5.634;2022-08-19T03:26:02;101100;;;19.8;100.0
48680;BME280;34475;51.658;5.634;2022-08-19T03:27:00;101100;;;19.8;100.0
48680;BME280;34475;51.658;5.634;2022-08-19T03:28:00;101110;;;19.8;100.0
48680;BME280;34475;51.658;5.634;2022-08-19T03:29:02;101110;;;19.8;100.0
48680;BME280;34475;51.658;5.634;2022-08-19T03:30:00;101100;;;19.7;100.0
48680;BME280;34475;51.658;5.634;2022-08-19T03:31:01;101100;;;19.7;100.0
48680;BME280;34475;51.658;5.634;2022-08-19T03:32:00;101100;;;19.7;100.0
48680;BME280;34475;51.658;5.634;2022-08-19T03:33:00;101100;;;19.7;100.0
48680;BME280;34475;51.658;5.634;2022-08-19T03:34:00;101100;;;19.7;100.0
48680;BME280;34475;51.658;5.634;2022-08-19T03:35:00;101100;;;19.7;100.0
48680;BME280;34475;51.658;5.634;2022-08-19T03:36:01;101100;;;19.6;100.0
48680;BME280;34475;51.658;5.634;2022-08-19T03:37:02;101100;;;19.6;100.0
48680;BME280;34475;51.658;5.634;2022-08-19T03:38:00;101100;;;19.6;100.0
48680;BME280;34475;51.658;5.634;2022-08-19T03:39:00;101100;;;19.6;100.0
48680;BME280;34475;51.658;5.634;2022-08-19T03:40:00;101100;;;19.6;100.0
48680;BME280;34475;51.658;5.634;2022-08-19T03:41:02;101100;;;19.6;100.0
48680;BME280;34475;51.658;5.634;2022-08-19T03:42:00;101100;;;19.5;100.0
48680;BME280;34475;51.658;5.634;2022-08-19T03:43:00;101100;;;19.5;100.0
48680;BME280;34475;51.658;5.634;2022-08-19T03:44:00;101100;;;19.5;100.0
48680;BME280;34475;51.658;5.634;2022-08-19T03:45:00;101100;;;19.5;100.0
48680;BME280;34475;51.658;5.634;2022-08-19T03:46:01;101090;;;19.5;100.0
48680;BME280;34475;51.658;5.634;2022-08-19T03:47:00;101090;;;19.5;100.0
48680;BME280;34475;51.658;5.634;2022-08-19T03:48:00;101090;;;19.5;100.0
48680;BME280;34475;51.658;5.634;2022-08-19T03:49:01;101090;;;19.5;100.0
48680;BME280;34475;51.658;5.634;2022-08-19T03:50:00;101090;;;19.5;100.0
48680;BME280;34475;51.658;5.634;2022-08-19T03:51:00;101090;;;19.5;100.0
48680;BME280;34475;51.658;5.634;2022-08-19T03:52:00;101080;;;19.5;100.0
48680;BME280;34475;51.658;5.634;2022-08-19T03:53:00;101080;;;19.5;100.0
48680;BME280;34475;51.658;5.634;2022-08-19T03:54:01;101090;;;19.5;100.0
48680;BME280;34475;51.658;5.634;2022-08-19T03:55:00;101090;;;19.5;100.0
48680;BME280;34475;51.658;5.634;2022-08-19T03:56:00;101080;;;19.5;100.0
48680;BME280;34475;51.658;5.634;2022-08-19T03:57:00;101080;;;19.5;100.0
48680;BME280;34475;51.658;5.634;2022-08-19T03:58:00;101080;;;19.5;100.0
48680;BME280;34475;51.658;5.634;2022-08-19T03:59:00;101080;;;19.5;100.0
48680;BME280;34475;51.658;5.634;2022-08-19T04:00:00;101080;;;19.4;100.0
48680;BME280;34475;51.658;5.634;2022-08-19T04:01:00;101080;;;19.4;100.0
48680;BME280;34475;51.658;5.634;2022-08-19T04:02:01;101080;;;19.5;100.0
48680;BME280;34475;51.658;5.634;2022-08-19T04:03:00;101080;;;19.5;100.0
48680;BME280;34475;51.658;5.634;2022-08-19T04:04:00;101080;;;19.4;100.0
48680;BME280;34475;51.658;5.634;2022-08-19T04:05:00;101080;;;19.4;100.0
48680;BME280;34475;51.658;5.634;2022-08-19T04:06:08;101090;;;19.4;100.0
48680;BME280;34475;51.658;5.634;2022-08-19T04:07:00;101090;;;19.4;100.0
48680;BME280;34475;51.658;5.634;2022-08-19T04:08:00;101100;;;19.4;100.0
48680;BME280;34475;51.658;5.634;2022-08-19T04:09:00;101100;;;19.4;100.0
48680;BME280;34475;51.658;5.634;2022-08-19T04:10:00;101100;;;19.4;100.0
48680;BME280;34475;51.658;5.634;2022-08-19T04:11:00;101100;;;19.4;100.0
48680;BME280;34475;51.658;5.634;2022-08-19T04:12:00;101100;;;19.2;100.0
48680;BME280;34475;51.658;5.634;2022-08-19T04:13:00;101100;;;19.2;100.0
48680;BME280;34475;51.658;5.634;2022-08-19T04:14:00;101110;;;19.1;100.0
48680;BME280;34475;51.658;5.634;2022-08-19T04:15:00;101110;;;19.1;100.0
48680;BME280;34475;51.658;5.634;2022-08-19T04:16:00;101100;;;19.2;100.0
48680;BME280;34475;51.658;5.634;2022-08-19T04:17:00;101100;;;19.2;100.0
48680;BME280;34475;51.658;5.634;2022-08-19T04:18:00;101090;;;19.2;100.0
48680;BME280;34475;51.658;5.634;2022-08-19T04:19:00;101090;;;19.2;100.0
48680;BME280;34475;51.658;5.634;2022-08-19T04:20:00;101090;;;19.2;100.0
48680;BME280;34475;51.658;5.634;2022-08-19T04:21:00;101090;;;19.2;100.0
48680;BME280;34475;51.658;5.634;2022-08-19T04:22:00;101090;;;19.2;100.0
48680;BME280;34475;51.658;5.634;2022-08-19T04:23:00;101090;;;19.2;100.0
48680;BME280;34475;51.658;5.634;2022-08-19T04:24:00;101100;;;19.2;100.0
48680;BME280;34475;51.658;5.634;2022-08-19T04:25:00;101100;;;19.2;100.0
48680;BME280;34475;51.658;5.634;2022-08-19T04:26:00;101090;;;19.2;100.0
48680;BME280;34475;51.658;5.634;2022-08-19T04:27:00;101090;;;19.2;100.0
48680;BME280;34475;51.658;5.634;2022-08-19T04:28:00;101090;;;19.2;100.0
48680;BME280;34475;51.658;5.634;2022-08-19T04:29:01;101090;;;19.2;100.0
48680;BME280;34475;51.658;5.634;2022-08-19T04:30:00;101080;;;19.1;100.0
48680;BME280;34475;51.658;5.634;2022-08-19T04:31:00;101080;;;19.1;100.0
48680;BME280;34475;51.658;5.634;2022-08-19T04:32:00;101080;;;19.1;100.0
48680;BME280;34475;51.658;5.634;2022-08-19T04:33:00;101080;;;19.1;100.0
48680;BME280;34475;51.658;5.634;2022-08-19T04:34:00;101080;;;19.0;100.0
48680;BME280;34475;51.658;5.634;2022-08-19T04:35:00;101080;;;19.0;100.0
48680;BME280;34475;51.658;5.634;2022-08-19T04:36:00;101080;;;19.0;100.0
48680;BME280;34475;51.658;5.634;2022-08-19T04:37:00;101080;;;19.0;100.0
48680;BME280;34475;51.658;5.634;2022-08-19T04:38:00;101080;;;19.0;100.0
48680;BME280;34475;51.658;5.634;2022-08-19T04:39:01;101080;;;19.0;100.0
48680;BME280;34475;51.658;5.634;2022-08-19T04:40:00;101080;;;19.0;100.0
48680;BME280;34475;51.658;5.634;2022-08-19T04:41:01;101080;;;19.0;100.0
48680;BME280;34475;51.658;5.634;2022-08-19T04:42:00;101080;;;19.0;100.0
48680;BME280;34475;51.658;5.634;2022-08-19T04:43:00;101080;;;19.0;100.0
48680;BME280;34475;51.658;5.634;2022-08-19T04:44:00;101080;;;19.0;100.0
48680;BME280;34475;51.658;5.634;2022-08-19T04:45:00;101080;;;19.0;100.0
48680;BME280;34475;51.658;5.634;2022-08-19T04:46:15;101080;;;19.0;100.0
48680;BME280;34475;51.658;5.634;2022-08-19T04:47:00;101080;;;19.0;100.0
48680;BME280;34475;51.658;5.634;2022-08-19T04:48:00;101080;;;19.0;100.0
48680;BME280;34475;51.658;5.634;2022-08-19T04:49:00;101080;;;19.0;100.0
48680;BME280;34475;51.658;5.634;2022-08-19T04:50:00;101080;;;19.0;100.0
48680;BME280;34475;51.658;5.634;2022-08-19T04:51:00;101080;;;19.0;100.0
48680;BME280;34475;51.658;5.634;2022-08-19T04:52:00;101080;;;18.9;100.0
48680;BME280;34475;51.658;5.634;2022-08-19T04:53:00;101080;;;18.9;100.0
48680;BME280;34475;51.658;5.634;2022-08-19T04:54:00;101080;;;18.9;100.0
48680;BME280;34475;51.658;5.634;2022-08-19T04:55:00;101080;;;18.9;100.0
48680;BME280;34475;51.658;5.634;2022-08-19T04:56:03;101080;;;18.9;100.0
48680;BME280;34475;51.658;5.634;2022-08-19T04:57:00;101080;;;18.9;100.0
48680;BME280;34475;51.658;5.634;2022-08-19T04:58:00;101090;;;18.9;100.0
48680;BME280;34475;51.658;5.634;2022-08-19T04:59:00;101090;;;18.9;100.0
48680;BME280;34475;51.658;5.634;2022-08-19T05:00:00;101090;;;18.8;100.0
48680;BME280;34475;51.658;5.634;2022-08-19T05:01:00;101090;;;18.8;100.0
48680;BME280;34475;51.658;5.634;2022-08-19T05:02:00;101090;;;18.9;100.0
48680;BME280;34475;51.658;5.634;2022-08-19T05:03:00;101090;;;18.9;100.0
48680;BME280;34475;51.658;5.634;2022-08-19T05:04:00;101090;;;18.9;100.0
48680;BME280;34475;51.658;5.634;2022-08-19T05:05:00;101090;;;18.9;100.0
48680;BME280;34475;51.658;5.634;2022-08-19T05:06:07;101100;;;18.9;100.0
48680;BME280;34475;51.658;5.634;2022-08-19T05:07:00;101100;;;18.9;100.0
48680;BME280;34475;51.658;5.634;2022-08-19T05:08:00;101100;;;18.8;100.0
48680;BME280;34475;51.658;5.634;2022-08-19T05:09:01;101100;;;18.8;100.0
48680;BME280;34475;51.658;5.634;2022-08-19T05:10:00;101100;;;18.9;100.0
48680;BME280;34475;51.658;5.634;2022-08-19T05:11:00;101100;;;18.9;100.0
48680;BME280;34475;51.658;5.634;2022-08-19T05:12:00;101100;;;18.8;100.0
48680;BME280;34475;51.658;5.634;2022-08-19T05:13:00;101100;;;18.8;100.0
48680;BME280;34475;51.658;5.634;2022-08-19T05:14:00;101100;;;18.8;100.0
48680;BME280;34475;51.658;5.634;2022-08-19T05:15:00;101100;;;18.8;100.0
48680;BME280;34475;51.658;5.634;2022-08-19T05:16:00;101100;;;18.9;100.0
48680;BME280;34475;51.658;5.634;2022-08-19T05:17:00;101100;;;18.9;100.0
48680;BME280;34475;51.658;5.634;2022-08-19T05:18:00;101110;;;18.8;100.0
48680;BME280;34475;51.658;5.634;2022-08-19T05:19:00;101110;;;18.8;100.0
48680;BME280;34475;51.658;5.634;2022-08-19T05:20:00;101110;;;18.8;100.0
48680;BME280;34475;51.658;5.634;2022-08-19T05:21:04;101110;;;18.8;100.0
48680;BME280;34475;51.658;5.634;2022-08-19T05:22:00;101120;;;18.8;100.0
48680;BME280;34475;51.658;5.634;2022-08-19T05:23:00;101120;;;18.8;100.0
48680;BME280;34475;51.658;5.634;2022-08-19T05:24:00;101110;;;18.7;100.0
48680;BME280;34475;51.658;5.634;2022-08-19T05:25:02;101110;;;18.7;100.0
48680;BME280;34475;51.658;5.634;2022-08-19T05:26:00;101110;;;18.8;100.0
48680;BME280;34475;51.658;5.634;2022-08-19T05:27:00;101110;;;18.8;100.0
48680;BME280;34475;51.658;5.634;2022-08-19T05:28:00;101120;;;18.7;100.0
48680;BME280;34475;51.658;5.634;2022-08-19T05:29:00;101120;;;18.7;100.0
48680;BME280;34475;51.658;5.634;2022-08-19T05:30:00;101120;;;18.8;100.0